Suplee, Pennsylvania
Current Conditions -  °F | °C
As of 2:55 AM on Thursday 23 Oct 2014 (Local Time) from KMQS Reporting Station
Overcast Overcast  
Wind Chill: 50°   Ceiling: 2100
Heat Index: 50°   Visibility: 10mi
Dew Point: 45°   Wind: 13mph
Humidity: 82%   Direction: 330°NNW
Pressure: 29.81"   Gusts: 24mph
Location:  40.1°N, 75.88°W
Report Text: KMQS 230655Z AUTO 33011G21KT 10SM BKN021 OVC035 10/07 A2981 RMK AO2
Loading
Personal Weather Stations






























Interactive Weather Map
Tropical Storm Tracking
New forecast layout! Learn more

10-Day Weather Forecast

Advertisements
Track Severe Weather on mobile